Steptoe Valley WMA, Nevada Weather observations

Data are for 10 minute period ending at time listed.
 Day   Time   Solar   Ave.   Ave.  Ave.  Vector  Max.   Baro.   Total    
  of    of     Rad.   Air    Rel.  Wind   Wind   Wind  Press.  Precip.   
Year   Day            Temp.  Hum.  Speed  Dir.   Gust                    
2015   (PST)  Kw/m2    F      %     mph   deg.    mph    mb.     in.     
-------------------------------------------------------------------------
  27   22:00   0.00   35.7    90    4.6   133     8.0   806.7    0.00 
  27   22:10   0.00   35.6    90    5.0   127     7.1   806.7    0.01 
  27   22:20   0.00   35.4    90    5.7   125     8.5   806.8    0.00 
  27   22:30   0.00   35.5    90    6.4   130     9.1   806.9    0.00 
  27   22:40   0.00   35.4    89    6.1   121     9.3   806.9    0.00 
  27   22:50   0.00   35.3    89    5.9   119     8.1   806.8    0.00 
  27   23:00   0.00   35.2    89    5.2   125     7.6   806.9    0.00 
  27   23:10   0.00   35.4    89    5.5   122     8.6   806.9    0.00 
  27   23:20   0.00   35.8    88    5.0   129     8.0   807.0    0.00 
  27   23:30   0.00   35.5    88    1.8   174     4.3   807.1    0.00 
  27   23:40   0.00   35.0    89    2.0   138     5.8   807.1    0.00 
  27   23:50   0.00   35.5    89    4.6   124     6.9   807.1    0.00 
  28    0:00   0.00   35.2    89    4.2   111     5.8   807.1    0.00 
  28    0:10   0.00   35.1    90    2.7   118     5.9   807.1    0.00 
  28    0:20   0.00   34.5    90    0.8   273     2.3   807.1    0.00 
  28    0:30   0.00   34.5    91    0.8    62     2.3   807.1    0.00 
  28    0:40   0.00   34.9    91    1.5   163     3.2   807.0    0.00 
  28    0:50   0.00   34.7    91    2.0   156     3.7   807.1    0.00 
  28    1:00   0.00   34.5    91    1.3   316     3.0   807.2    0.00 
  28    1:10   0.00   34.4    92    2.4   171     4.8   807.3    0.00 
  28    1:20   0.00   34.5    91    2.9   256     7.6   807.3    0.00 
  28    1:30   0.00   35.7    90    3.9   353     8.0   807.4    0.00 
  28    1:40   0.00   35.9    88    2.4   356     5.8   807.4    0.00 
  28    1:50   0.00   36.1    86    3.5   358    10.4   807.4    0.00 
  28    2:00   0.00   34.8    88    5.3   332     9.7   807.4    0.00 
  28    2:10   0.00   35.1    90    8.4   359    13.2   807.4    0.00 
  28    2:20   0.00   35.2    90    8.6     9    13.8   807.4    0.00 
  28    2:30   0.00   35.2    90    8.1   359    12.0   807.6    0.00 
  28    2:40   0.00   34.8    90    5.0   354    10.3   807.6    0.00 
  28    2:50   0.00   33.7    91    3.5   346     5.1   807.5    0.00 
  28    3:00   0.00   32.9    91    1.6   359     3.3   807.5    0.00 
  28    3:10   0.00   32.7    92    1.7    30     4.2   807.4    0.00 
  28    3:20   0.00   31.7    92    0.4   136     1.8   807.5    0.00 
  28    3:30   0.00   31.7    92    0.8     6     2.1   807.5    0.00 
  28    3:40   0.00   31.7    93    3.2    18     5.0   807.5    0.00 
  28    3:50   0.00   31.5    93    2.4   360     4.7   807.5    0.00 
  28    4:00   0.00   30.8    92    0.0   343     0.7   807.5    0.00 
  28    4:10   0.00   31.2    93    2.0    26     4.6   807.6    0.00 
  28    4:20   0.00   32.0    94    2.7    16     3.5   807.7    0.00 
  28    4:30   0.00   31.8    93    3.6    38     5.5   807.7    0.00 
  28    4:40   0.00   31.4    93    2.3    19     3.2   807.7    0.00 
  28    4:50   0.00   30.0    92    1.6   325     3.3   807.7    0.00 
  28    5:00   0.00   30.0    94    1.1    24     2.9   807.8    0.00 
  28    5:10   0.00   31.9    94    2.0    29     4.1   807.9    0.00 
  28    5:20   0.00   32.1    93    1.4    67     3.4   807.9    0.00 
  28    5:30   0.00   32.5    93    1.1    68     3.3   808.0    0.00 
  28    5:40   0.00   32.0    93    1.6    90     3.2   808.1    0.00 
  28    5:50   0.00   32.0    93    0.8    75     3.5   808.1    0.00 
  28    6:00   0.00   31.6    93    2.9    88     3.9   808.2    0.00 
  28    6:10   0.00   31.6    92    1.0   191     3.3   808.2    0.00 
  28    6:20   0.00   30.7    92    1.3   107     2.2   808.2    0.00 
  28    6:30   0.00   31.2    93    2.3    24     7.5   808.2    0.00 
  28    6:40   0.00   29.9    91    6.2    97     7.7   808.4    0.00 
  28    6:50   0.00   30.0    91    5.0   100     6.9   808.5    0.00 
  28    7:00   0.01   29.5    91    5.3   100     6.6   808.5    0.00 
  28    7:10   0.01   28.8    91    4.7   100     6.6   808.6    0.00 
  28    7:20   0.01   28.1    90    2.3   146     4.2   808.7    0.00 
  28    7:30   0.03   26.4    90    1.5   171     2.6   808.8    0.00 
  28    7:40   0.06   27.7    92    1.5   164     3.1   808.8    0.00 
  28    7:50   0.16   29.5    92    0.7   124     1.7   808.9    0.00 
  28    8:00   0.20   32.4    90    2.1   155     2.7   809.0    0.00 
  28    8:10   0.23   34.5    87    2.5   163     4.6   809.1    0.00 
  28    8:20   0.25   35.5    85    2.3   163     4.0   809.0    0.00 
  28    8:30   0.27   38.7    83    0.1   217     1.0   809.0    0.00 
  28    8:40   0.29   39.4    80    0.8   306     2.1   809.0    0.00 
  28    8:50   0.32   39.6    78    0.5   324     2.5   809.1    0.00 
  28    9:00   0.34   39.1    79    2.5   332     5.0   809.1    0.00 
  28    9:10   0.37   39.0    81    4.6   341     6.9   809.0    0.00 
  28    9:20   0.40   39.5    79    5.9   348     9.9   809.0    0.00 
  28    9:30   0.43   40.4    77    8.1   337    13.3   809.1    0.00 
  28    9:40   0.23   40.0    76    7.4   322    10.8   809.1    0.00 
  28    9:50   0.25   38.9    78    7.2   321    10.2   809.1    0.00 
  28   10:00   0.30   39.7    78    6.0   329     9.5   809.1    0.00 
  28   10:10   0.52   41.5    74    5.6   321    11.5   809.1    0.00 
  28   10:20   0.18   40.2    73    6.4   328    11.6   809.1    0.00 
  28   10:30   0.53   42.0    70    5.8   332    12.1   809.1    0.00 
  28   10:40   0.42   42.2    68    7.0   326    10.2   809.0    0.00 
  28   10:50   0.43   42.0    66    6.3   323     9.9   808.9    0.00 
  28   11:00   0.56   43.2    62    5.4   323    10.2   808.7    0.00 
  28   11:10   0.56   43.8    61    5.9   319     9.7   808.6    0.00 
  28   11:20   0.57   44.1    60    3.9   320     7.5   808.4    0.00 
  28   11:30   0.58   44.6    59    5.0   330     9.9   808.3    0.00 
  28   11:40   0.58   45.0    59    5.6   334     8.8   808.3    0.00 
  28   11:50   0.59   44.9    59    6.2   312    11.0   808.2    0.00 
  28   12:00   0.62   45.6    58    6.5   320    11.6   808.1    0.00 
  28   12:10   0.72   46.1    56    6.0   322    11.9   808.1    0.00 
  28   12:20   0.56   46.7    55    7.2   338    10.6   807.8    0.00 
  28   12:30   0.39   45.5    56    5.9   350     9.4   807.7    0.00 
  28   12:40   0.37   45.4    57    7.6   342    11.4   807.7    0.00 
  28   12:50   0.39   45.4    58    8.2   349    12.4   807.5    0.00 
  28   13:00   0.48   45.2    58    7.2   337    10.6   807.5    0.00 
  28   13:10   0.49   46.3    56    6.5   333     9.8   807.4    0.00 
  28   13:20   0.24   45.4    57    6.7   324     9.6   807.4    0.00 
  28   13:30   0.21   45.4    57    6.0   316     9.1   807.3    0.00 
  28   13:40   0.15   45.6    56    5.4   318     9.2   807.3    0.00 
  28   13:50   0.17   45.6    56    4.8   312     7.7   807.3    0.00 
  28   14:00   0.49   47.8    53    7.3   339    12.7   807.3    0.00 
  28   14:10   0.45   48.1    52    7.9   344    12.8   807.2    0.00 
  28   14:20   0.32   48.3    52   10.2   344    15.3   807.1    0.00 
  28   14:30   0.26   47.5    54    7.4   338    11.0   807.1    0.00 
  28   14:40   0.17   46.6    54    8.3   356    12.6   807.1    0.00 
  28   14:50   0.25   46.9    54    9.5   355    14.2   807.2    0.00 
  28   15:00   0.23   46.1    55    9.2   351    15.2   807.1    0.00 
  28   15:10   0.29   47.6    52    9.4   343    15.0   807.1    0.00 
  28   15:20   0.16   46.7    54    9.5   353    13.9   807.1    0.00 
  28   15:30   0.13   46.1    55    7.5   353    11.3   807.1    0.00 
  28   15:40   0.10   45.9    55    6.1   346     9.3   807.3    0.00 
  28   15:50   0.07   45.2    56    6.9   345    12.6   807.3    0.00 
  28   16:00   0.07   45.0    57    9.0   348    12.8   807.5    0.00 
  28   16:10   0.07   44.5    59    8.1   344    12.1   807.6    0.00 
  28   16:20   0.05   44.0    60    6.2   350     9.3   807.7    0.00 
  28   16:30   0.02   43.5    61    7.3   351    12.4   807.8    0.00 
  28   16:40   0.01   42.6    62    6.4   341     9.3   807.9    0.00 
  28   16:50   0.01   41.4    65    4.7   330     7.2   807.9    0.00 
  28   17:00   0.00   40.4    66    3.7   318     5.4   808.0    0.00 
  28   17:10   0.00   39.4    68    4.5   319     7.5   808.1    0.00 
  28   17:20   0.00   38.6    69    4.7   322     6.4   808.1    0.00 
  28   17:30   0.00   36.4    72    3.7   346     5.0   808.1    0.00 
  28   17:40   0.00   35.9    75    3.2     6     4.5   808.1    0.00 
  28   17:50   0.00   35.6    75    1.7    25     3.2   808.2    0.00 
  28   18:00   0.00   34.8    76    0.1   235     0.7   808.3    0.00 
  28   18:10   0.00   32.9    77    2.5   169     4.7   808.4    0.00 
  28   18:20   0.00   31.1    82    2.2   156     3.9   808.5    0.00 
  28   18:30   0.00   31.7    83    0.4   166     1.6   808.5    0.00 
  28   18:40   0.00   31.5    83    0.4    21     2.8   808.6    0.00 
  28   18:50   0.00   32.8    82    1.2    27     3.5   808.6    0.00 
  28   19:00   0.00   32.8    80    0.9   122     3.1   808.7    0.00 
  28   19:10   0.00   30.8    80    0.9   180     3.0   808.7    0.00 
  28   19:20   0.00   29.8    84    1.7   132     4.7   808.8    0.00 
  28   19:30   0.00   29.7    84    1.0   145     3.5   808.8    0.00 
  28   19:40   0.00   29.2    85    1.3   150     2.3   808.8    0.00 
  28   19:50   0.00   26.5    84    1.9   183     2.6   808.8    0.00 
  28   20:00   0.00   25.3    87    1.3   172     1.7   808.8    0.00 
  28   20:10   0.00   24.4    88    0.4   216     1.4   808.9    0.00 
  28   20:20   0.00   23.1    88    0.6   174     1.8   808.9    0.00 
  28   20:30   0.00   23.0    89    0.9   176     1.5   808.9    0.00 
  28   20:40   0.00   22.7    90    1.1   170     2.0   809.0    0.00 
  28   20:50   0.00   23.1    91    1.0   166     2.1   809.1    0.00 
  28   21:00   0.00   25.0    92    1.5   141     2.5   809.1    0.00 
  28   21:10   0.00   25.7    91    0.5   118     1.8   809.2    0.00 
  28   21:20   0.00   25.4    91    0.8   167     2.1   809.4    0.00 
  28   21:30   0.00   25.7    91    1.1   157     2.6   809.4    0.00 
  28   21:40   0.00   26.3    91    1.3   174     2.6   809.4    0.00 
  28   21:50   0.00   24.8    90    1.3   174     2.5   809.5    0.00 

Return to Steptoe Valley WMA graphs page.


Western Regional Climate Center,wrcc@dri.edu